sensor_id;sensor_type;location;lat;lon;timestamp;pressure;altitude;pressure_sealevel;temperature;humidity
59971;BME280;45825;45.434;9.116;2024-01-07T00:00:38;98592.56;;;6.78;100.00
59971;BME280;45825;45.434;9.116;2024-01-07T00:03:04;98598.69;;;6.64;100.00
59971;BME280;45825;45.434;9.116;2024-01-07T00:05:29;98595.25;;;6.64;100.00
59971;BME280;45825;45.434;9.116;2024-01-07T00:07:54;98587.09;;;6.55;100.00
59971;BME280;45825;45.434;9.116;2024-01-07T00:10:19;98597.53;;;6.55;100.00
59971;BME280;45825;45.434;9.116;2024-01-07T00:12:45;98593.16;;;6.56;100.00
59971;BME280;45825;45.434;9.116;2024-01-07T00:15:10;98587.94;;;6.56;100.00
59971;BME280;45825;45.434;9.116;2024-01-07T00:17:35;98585.41;;;6.54;100.00
59971;BME280;45825;45.434;9.116;2024-01-07T00:20:01;98577.28;;;6.59;100.00
59971;BME280;45825;45.434;9.116;2024-01-07T00:22:26;98584.69;;;6.52;100.00
59971;BME280;45825;45.434;9.116;2024-01-07T00:24:51;98587.47;;;6.49;100.00
59971;BME280;45825;45.434;9.116;2024-01-07T00:27:17;98581.56;;;6.60;100.00
59971;BME280;45825;45.434;9.116;2024-01-07T00:29:42;98583.97;;;6.63;100.00
59971;BME280;45825;45.434;9.116;2024-01-07T00:32:07;98578.31;;;6.56;100.00
59971;BME280;45825;45.434;9.116;2024-01-07T00:34:32;98580.19;;;6.54;100.00
59971;BME280;45825;45.434;9.116;2024-01-07T00:36:58;98579.31;;;6.54;100.00
59971;BME280;45825;45.434;9.116;2024-01-07T00:39:23;98572.44;;;6.53;100.00
59971;BME280;45825;45.434;9.116;2024-01-07T00:41:48;98576.84;;;6.52;100.00
59971;BME280;45825;45.434;9.116;2024-01-07T00:44:14;98579.31;;;6.54;100.00
59971;BME280;45825;45.434;9.116;2024-01-07T00:46:39;98583.09;;;6.50;100.00
59971;BME280;45825;45.434;9.116;2024-01-07T00:49:04;98571.31;;;6.57;100.00
59971;BME280;45825;45.434;9.116;2024-01-07T00:51:29;98592.84;;;6.61;100.00
59971;BME280;45825;45.434;9.116;2024-01-07T00:53:55;98595.13;;;6.52;100.00
59971;BME280;45825;45.434;9.116;2024-01-07T00:56:20;98592.25;;;6.42;100.00
59971;BME280;45825;45.434;9.116;2024-01-07T00:58:45;98594.06;;;6.42;100.00
59971;BME280;45825;45.434;9.116;2024-01-07T01:01:11;98597.50;;;6.42;100.00
59971;BME280;45825;45.434;9.116;2024-01-07T01:03:36;98593.94;;;6.43;100.00
59971;BME280;45825;45.434;9.116;2024-01-07T01:06:01;98603.16;;;6.49;100.00
59971;BME280;45825;45.434;9.116;2024-01-07T01:08:27;98600.06;;;6.57;100.00
59971;BME280;45825;45.434;9.116;2024-01-07T01:10:53;98595.34;;;6.62;100.00
59971;BME280;45825;45.434;9.116;2024-01-07T01:13:18;98595.66;;;6.57;100.00
59971;BME280;45825;45.434;9.116;2024-01-07T01:15:43;98604.34;;;6.58;100.00
59971;BME280;45825;45.434;9.116;2024-01-07T01:18:09;98593.00;;;6.45;100.00
59971;BME280;45825;45.434;9.116;2024-01-07T01:20:34;98612.56;;;6.52;100.00
59971;BME280;45825;45.434;9.116;2024-01-07T01:22:59;98612.28;;;6.56;100.00
59971;BME280;45825;45.434;9.116;2024-01-07T01:25:25;98611.63;;;6.53;100.00
59971;BME280;45825;45.434;9.116;2024-01-07T01:27:51;98606.41;;;6.53;100.00
59971;BME280;45825;45.434;9.116;2024-01-07T01:30:16;98611.75;;;6.51;100.00
59971;BME280;45825;45.434;9.116;2024-01-07T01:32:42;98613.59;;;6.49;100.00
59971;BME280;45825;45.434;9.116;2024-01-07T01:35:07;98613.84;;;6.59;100.00
59971;BME280;45825;45.434;9.116;2024-01-07T01:37:33;98608.63;;;6.59;100.00
59971;BME280;45825;45.434;9.116;2024-01-07T01:39:59;98611.53;;;6.54;100.00
59971;BME280;45825;45.434;9.116;2024-01-07T01:42:24;98612.88;;;6.47;100.00
59971;BME280;45825;45.434;9.116;2024-01-07T01:44:50;98613.94;;;6.57;100.00
59971;BME280;45825;45.434;9.116;2024-01-07T01:47:16;98614.25;;;6.53;100.00
59971;BME280;45825;45.434;9.116;2024-01-07T01:49:41;98630.34;;;6.47;100.00
59971;BME280;45825;45.434;9.116;2024-01-07T01:52:08;98632.69;;;6.37;100.00
59971;BME280;45825;45.434;9.116;2024-01-07T01:54:34;98617.16;;;6.48;100.00
59971;BME280;45825;45.434;9.116;2024-01-07T01:56:59;98605.06;;;6.60;100.00
59971;BME280;45825;45.434;9.116;2024-01-07T01:59:25;98625.38;;;6.69;100.00
59971;BME280;45825;45.434;9.116;2024-01-07T02:01:51;98633.75;;;6.75;100.00
59971;BME280;45825;45.434;9.116;2024-01-07T02:04:16;98624.63;;;6.54;100.00
59971;BME280;45825;45.434;9.116;2024-01-07T02:06:42;98622.44;;;6.61;100.00
59971;BME280;45825;45.434;9.116;2024-01-07T02:09:07;98622.19;;;6.51;100.00
59971;BME280;45825;45.434;9.116;2024-01-07T02:11:33;98628.38;;;6.50;100.00
59971;BME280;45825;45.434;9.116;2024-01-07T02:13:58;98632.00;;;6.48;100.00
59971;BME280;45825;45.434;9.116;2024-01-07T02:16:23;98624.91;;;6.50;100.00
59971;BME280;45825;45.434;9.116;2024-01-07T02:18:49;98617.28;;;6.47;100.00
59971;BME280;45825;45.434;9.116;2024-01-07T02:21:14;98618.94;;;6.48;100.00
59971;BME280;45825;45.434;9.116;2024-01-07T02:23:40;98624.41;;;6.57;100.00
59971;BME280;45825;45.434;9.116;2024-01-07T02:26:06;98621.69;;;6.59;100.00
59971;BME280;45825;45.434;9.116;2024-01-07T02:28:32;98620.97;;;6.57;100.00
59971;BME280;45825;45.434;9.116;2024-01-07T02:30:58;98626.38;;;6.54;100.00
59971;BME280;45825;45.434;9.116;2024-01-07T02:33:23;98637.25;;;6.48;100.00
59971;BME280;45825;45.434;9.116;2024-01-07T02:35:48;98619.69;;;6.50;100.00
59971;BME280;45825;45.434;9.116;2024-01-07T02:38:14;98624.69;;;6.53;100.00
59971;BME280;45825;45.434;9.116;2024-01-07T02:40:39;98623.88;;;6.52;100.00
59971;BME280;45825;45.434;9.116;2024-01-07T02:43:04;98615.41;;;6.49;100.00
59971;BME280;45825;45.434;9.116;2024-01-07T02:45:29;98625.25;;;6.58;100.00
59971;BME280;45825;45.434;9.116;2024-01-07T02:47:55;98623.47;;;6.59;100.00
59971;BME280;45825;45.434;9.116;2024-01-07T02:50:20;98624.31;;;6.59;100.00
59971;BME280;45825;45.434;9.116;2024-01-07T02:52:45;98626.81;;;6.61;100.00
59971;BME280;45825;45.434;9.116;2024-01-07T02:55:11;98611.97;;;6.61;100.00
59971;BME280;45825;45.434;9.116;2024-01-07T02:57:36;98594.06;;;6.55;100.00
59971;BME280;45825;45.434;9.116;2024-01-07T03:00:02;98620.34;;;6.66;100.00
59971;BME280;45825;45.434;9.116;2024-01-07T03:02:29;98612.31;;;6.69;100.00
59971;BME280;45825;45.434;9.116;2024-01-07T03:04:55;98615.13;;;6.66;100.00
59971;BME280;45825;45.434;9.116;2024-01-07T03:07:20;98625.38;;;6.69;100.00
59971;BME280;45825;45.434;9.116;2024-01-07T03:09:45;98621.84;;;6.70;100.00
59971;BME280;45825;45.434;9.116;2024-01-07T03:12:11;98618.28;;;6.71;100.00
59971;BME280;45825;45.434;9.116;2024-01-07T03:14:36;98617.72;;;6.66;100.00
59971;BME280;45825;45.434;9.116;2024-01-07T03:17:01;98621.50;;;6.62;100.00
59971;BME280;45825;45.434;9.116;2024-01-07T03:19:26;98620.75;;;6.60;100.00
59971;BME280;45825;45.434;9.116;2024-01-07T03:21:52;98623.91;;;6.65;100.00
59971;BME280;45825;45.434;9.116;2024-01-07T03:24:17;98623.38;;;6.60;100.00
59971;BME280;45825;45.434;9.116;2024-01-07T03:26:42;98626.06;;;6.59;100.00
59971;BME280;45825;45.434;9.116;2024-01-07T03:29:08;98627.16;;;6.69;100.00
59971;BME280;45825;45.434;9.116;2024-01-07T03:31:33;98624.75;;;6.66;100.00
59971;BME280;45825;45.434;9.116;2024-01-07T03:33:58;98628.81;;;6.57;100.00
59971;BME280;45825;45.434;9.116;2024-01-07T03:36:24;98632.16;;;6.59;100.00
59971;BME280;45825;45.434;9.116;2024-01-07T03:38:49;98631.66;;;6.67;100.00
59971;BME280;45825;45.434;9.116;2024-01-07T03:41:18;98634.22;;;6.54;100.00
59971;BME280;45825;45.434;9.116;2024-01-07T03:43:45;98640.00;;;6.59;100.00
59971;BME280;45825;45.434;9.116;2024-01-07T03:46:11;98641.59;;;6.62;100.00
59971;BME280;45825;45.434;9.116;2024-01-07T03:48:36;98639.88;;;6.61;100.00
59971;BME280;45825;45.434;9.116;2024-01-07T03:51:01;98640.44;;;6.66;100.00
59971;BME280;45825;45.434;9.116;2024-01-07T03:53:26;98648.28;;;6.66;100.00
59971;BME280;45825;45.434;9.116;2024-01-07T03:55:52;98646.00;;;6.74;100.00
59971;BME280;45825;45.434;9.116;2024-01-07T03:58:17;98641.22;;;6.81;100.00
59971;BME280;45825;45.434;9.116;2024-01-07T04:00:42;98636.56;;;6.71;100.00
59971;BME280;45825;45.434;9.116;2024-01-07T04:03:08;98646.31;;;6.69;100.00
59971;BME280;45825;45.434;9.116;2024-01-07T04:05:33;98638.25;;;6.73;100.00
59971;BME280;45825;45.434;9.116;2024-01-07T04:08:00;98647.13;;;6.70;100.00
59971;BME280;45825;45.434;9.116;2024-01-07T04:10:26;98646.47;;;6.66;100.00
59971;BME280;45825;45.434;9.116;2024-01-07T04:12:51;98647.53;;;6.64;100.00
59971;BME280;45825;45.434;9.116;2024-01-07T04:15:16;98648.38;;;6.64;100.00
59971;BME280;45825;45.434;9.116;2024-01-07T04:17:42;98648.19;;;6.67;100.00
59971;BME280;45825;45.434;9.116;2024-01-07T04:20:08;98656.75;;;6.69;100.00
59971;BME280;45825;45.434;9.116;2024-01-07T04:22:33;98653.63;;;6.77;100.00
59971;BME280;45825;45.434;9.116;2024-01-07T04:25:00;98657.28;;;6.75;100.00
59971;BME280;45825;45.434;9.116;2024-01-07T04:27:25;98667.00;;;6.73;100.00
59971;BME280;45825;45.434;9.116;2024-01-07T04:29:50;98669.81;;;6.69;100.00
59971;BME280;45825;45.434;9.116;2024-01-07T04:32:16;98659.47;;;6.68;100.00
59971;BME280;45825;45.434;9.116;2024-01-07T04:34:41;98662.63;;;6.73;100.00
59971;BME280;45825;45.434;9.116;2024-01-07T04:37:06;98665.34;;;6.71;100.00
59971;BME280;45825;45.434;9.116;2024-01-07T04:39:32;98675.88;;;6.70;100.00
59971;BME280;45825;45.434;9.116;2024-01-07T04:41:57;98668.97;;;6.69;100.00
59971;BME280;45825;45.434;9.116;2024-01-07T04:44:23;98675.50;;;6.76;100.00
59971;BME280;45825;45.434;9.116;2024-01-07T04:46:48;98679.22;;;7.12;100.00
59971;BME280;45825;45.434;9.116;2024-01-07T04:49:16;98688.31;;;6.94;100.00
59971;BME280;45825;45.434;9.116;2024-01-07T04:51:41;98694.75;;;6.88;100.00
59971;BME280;45825;45.434;9.116;2024-01-07T04:54:07;98696.13;;;6.81;100.00
59971;BME280;45825;45.434;9.116;2024-01-07T04:56:32;98702.28;;;6.80;100.00
59971;BME280;45825;45.434;9.116;2024-01-07T04:58:58;98693.94;;;6.88;100.00
59971;BME280;45825;45.434;9.116;2024-01-07T05:01:23;98694.97;;;6.85;100.00
59971;BME280;45825;45.434;9.116;2024-01-07T05:03:49;98689.00;;;6.83;100.00
59971;BME280;45825;45.434;9.116;2024-01-07T05:06:14;98695.69;;;6.87;100.00
59971;BME280;45825;45.434;9.116;2024-01-07T05:08:40;98706.13;;;6.74;100.00
59971;BME280;45825;45.434;9.116;2024-01-07T05:11:06;98704.63;;;6.70;100.00
59971;BME280;45825;45.434;9.116;2024-01-07T05:13:31;98704.94;;;6.65;100.00
59971;BME280;45825;45.434;9.116;2024-01-07T05:15:57;98708.69;;;6.89;100.00
59971;BME280;45825;45.434;9.116;2024-01-07T05:18:22;98704.22;;;7.04;100.00
59971;BME280;45825;45.434;9.116;2024-01-07T05:20:48;98707.44;;;6.94;100.00
59971;BME280;45825;45.434;9.116;2024-01-07T05:23:14;98702.94;;;6.83;100.00
59971;BME280;45825;45.434;9.116;2024-01-07T05:25:39;98698.94;;;6.50;100.00
59971;BME280;45825;45.434;9.116;2024-01-07T05:28:04;98707.66;;;6.64;100.00
59971;BME280;45825;45.434;9.116;2024-01-07T05:30:30;98703.47;;;6.61;100.00
59971;BME280;45825;45.434;9.116;2024-01-07T05:32:55;98700.75;;;6.63;100.00
59971;BME280;45825;45.434;9.116;2024-01-07T05:35:20;98698.16;;;6.63;100.00
59971;BME280;45825;45.434;9.116;2024-01-07T05:37:46;98707.38;;;6.54;100.00
59971;BME280;45825;45.434;9.116;2024-01-07T05:40:11;98715.69;;;6.61;100.00
59971;BME280;45825;45.434;9.116;2024-01-07T05:42:37;98712.25;;;6.60;100.00
59971;BME280;45825;45.434;9.116;2024-01-07T05:45:02;98702.59;;;6.61;100.00
59971;BME280;45825;45.434;9.116;2024-01-07T05:47:28;98696.34;;;6.63;100.00
59971;BME280;45825;45.434;9.116;2024-01-07T05:49:53;98695.25;;;6.67;100.00
59971;BME280;45825;45.434;9.116;2024-01-07T05:52:18;98694.94;;;6.72;100.00
59971;BME280;45825;45.434;9.116;2024-01-07T05:54:44;98698.16;;;6.76;100.00
59971;BME280;45825;45.434;9.116;2024-01-07T05:57:11;98702.72;;;6.59;100.00
59971;BME280;45825;45.434;9.116;2024-01-07T05:59:37;98699.97;;;6.48;100.00
59971;BME280;45825;45.434;9.116;2024-01-07T06:02:02;98694.59;;;6.64;100.00
59971;BME280;45825;45.434;9.116;2024-01-07T06:04:27;98703.25;;;6.64;100.00
59971;BME280;45825;45.434;9.116;2024-01-07T06:06:53;98702.00;;;6.57;100.00
59971;BME280;45825;45.434;9.116;2024-01-07T06:09:18;98694.44;;;6.80;100.00
59971;BME280;45825;45.434;9.116;2024-01-07T06:11:43;98704.34;;;6.75;100.00
59971;BME280;45825;45.434;9.116;2024-01-07T06:14:08;98704.94;;;6.65;100.00
59971;BME280;45825;45.434;9.116;2024-01-07T06:16:34;98696.91;;;6.96;100.00
59971;BME280;45825;45.434;9.116;2024-01-07T06:18:59;98691.53;;;6.97;100.00
59971;BME280;45825;45.434;9.116;2024-01-07T06:21:24;98719.53;;;6.82;100.00
59971;BME280;45825;45.434;9.116;2024-01-07T06:23:49;98726.84;;;6.77;100.00
59971;BME280;45825;45.434;9.116;2024-01-07T06:26:15;98713.03;;;6.75;100.00
59971;BME280;45825;45.434;9.116;2024-01-07T06:28:40;98726.59;;;6.67;100.00
59971;BME280;45825;45.434;9.116;2024-01-07T06:31:05;98728.38;;;6.67;100.00
59971;BME280;45825;45.434;9.116;2024-01-07T06:33:34;98723.88;;;6.69;100.00
59971;BME280;45825;45.434;9.116;2024-01-07T06:36:00;98720.31;;;6.97;100.00
59971;BME280;45825;45.434;9.116;2024-01-07T06:38:25;98735.34;;;6.81;100.00
59971;BME280;45825;45.434;9.116;2024-01-07T06:40:51;98720.97;;;6.74;100.00
59971;BME280;45825;45.434;9.116;2024-01-07T06:43:16;98719.00;;;6.77;100.00
59971;BME280;45825;45.434;9.116;2024-01-07T06:45:42;98715.88;;;6.85;100.00
59971;BME280;45825;45.434;9.116;2024-01-07T06:48:08;98711.66;;;6.97;100.00
59971;BME280;45825;45.434;9.116;2024-01-07T06:50:33;98711.34;;;7.02;100.00
59971;BME280;45825;45.434;9.116;2024-01-07T06:52:59;98713.38;;;7.11;100.00
59971;BME280;45825;45.434;9.116;2024-01-07T06:55:24;98720.00;;;7.02;100.00
59971;BME280;45825;45.434;9.116;2024-01-07T06:57:49;98724.06;;;6.93;100.00
59971;BME280;45825;45.434;9.116;2024-01-07T07:00:15;98716.81;;;6.84;100.00
59971;BME280;45825;45.434;9.116;2024-01-07T07:02:40;98712.19;;;6.75;100.00
59971;BME280;45825;45.434;9.116;2024-01-07T07:05:06;98710.00;;;6.81;100.00
59971;BME280;45825;45.434;9.116;2024-01-07T07:07:31;98723.50;;;6.75;100.00
59971;BME280;45825;45.434;9.116;2024-01-07T07:09:57;98741.38;;;6.81;100.00
59971;BME280;45825;45.434;9.116;2024-01-07T07:12:22;98744.41;;;6.75;100.00
59971;BME280;45825;45.434;9.116;2024-01-07T07:14:47;98744.75;;;6.83;100.00
59971;BME280;45825;45.434;9.116;2024-01-07T07:17:13;98752.78;;;6.80;100.00
59971;BME280;45825;45.434;9.116;2024-01-07T07:19:39;98750.00;;;6.83;100.00
59971;BME280;45825;45.434;9.116;2024-01-07T07:22:04;98759.50;;;6.84;100.00
59971;BME280;45825;45.434;9.116;2024-01-07T07:24:29;98765.34;;;6.88;100.00
59971;BME280;45825;45.434;9.116;2024-01-07T07:26:55;98765.28;;;6.90;100.00
59971;BME280;45825;45.434;9.116;2024-01-07T07:29:20;98770.28;;;6.93;100.00
59971;BME280;45825;45.434;9.116;2024-01-07T07:31:45;98761.03;;;7.02;100.00
59971;BME280;45825;45.434;9.116;2024-01-07T07:34:11;98761.13;;;7.00;100.00
59971;BME280;45825;45.434;9.116;2024-01-07T07:36:37;98765.41;;;7.01;100.00
59971;BME280;45825;45.434;9.116;2024-01-07T07:39:02;98765.72;;;6.96;100.00
59971;BME280;45825;45.434;9.116;2024-01-07T07:41:27;98767.50;;;6.96;100.00
59971;BME280;45825;45.434;9.116;2024-01-07T07:43:53;98776.91;;;6.98;100.00
59971;BME280;45825;45.434;9.116;2024-01-07T07:46:19;98774.28;;;6.98;100.00
59971;BME280;45825;45.434;9.116;2024-01-07T07:48:45;98777.56;;;7.02;100.00
59971;BME280;45825;45.434;9.116;2024-01-07T07:51:10;98784.28;;;7.06;100.00
59971;BME280;45825;45.434;9.116;2024-01-07T07:53:38;98793.69;;;7.09;100.00
59971;BME280;45825;45.434;9.116;2024-01-07T07:56:05;98798.84;;;7.10;100.00
59971;BME280;45825;45.434;9.116;2024-01-07T07:58:31;98798.84;;;7.10;100.00
59971;BME280;45825;45.434;9.116;2024-01-07T08:00:56;98796.91;;;7.27;100.00
59971;BME280;45825;45.434;9.116;2024-01-07T08:03:21;98813.16;;;7.32;100.00
59971;BME280;45825;45.434;9.116;2024-01-07T08:05:46;98811.81;;;7.52;100.00
59971;BME280;45825;45.434;9.116;2024-01-07T08:08:12;98812.53;;;7.41;100.00
59971;BME280;45825;45.434;9.116;2024-01-07T08:10:37;98815.97;;;7.29;100.00
59971;BME280;45825;45.434;9.116;2024-01-07T08:13:02;98817.56;;;7.32;100.00
59971;BME280;45825;45.434;9.116;2024-01-07T08:15:28;98817.72;;;7.29;100.00
59971;BME280;45825;45.434;9.116;2024-01-07T08:17:53;98824.25;;;7.36;100.00
59971;BME280;45825;45.434;9.116;2024-01-07T08:20:18;98823.66;;;7.45;100.00
59971;BME280;45825;45.434;9.116;2024-01-07T08:22:46;98829.63;;;7.47;100.00
59971;BME280;45825;45.434;9.116;2024-01-07T08:25:12;98824.91;;;7.39;100.00
59971;BME280;45825;45.434;9.116;2024-01-07T08:27:40;98822.72;;;7.46;100.00
59971;BME280;45825;45.434;9.116;2024-01-07T08:30:06;98827.59;;;7.38;100.00
59971;BME280;45825;45.434;9.116;2024-01-07T08:32:32;98831.50;;;7.45;100.00
59971;BME280;45825;45.434;9.116;2024-01-07T08:34:57;98832.47;;;7.44;100.00
59971;BME280;45825;45.434;9.116;2024-01-07T08:37:22;98827.00;;;7.47;100.00
59971;BME280;45825;45.434;9.116;2024-01-07T08:39:47;98831.84;;;7.53;100.00
59971;BME280;45825;45.434;9.116;2024-01-07T08:42:13;98820.00;;;7.48;100.00
59971;BME280;45825;45.434;9.116;2024-01-07T08:44:38;98822.84;;;7.58;100.00
59971;BME280;45825;45.434;9.116;2024-01-07T08:47:04;98806.72;;;7.64;100.00
59971;BME280;45825;45.434;9.116;2024-01-07T08:49:30;98817.34;;;7.75;100.00
59971;BME280;45825;45.434;9.116;2024-01-07T08:51:58;98820.34;;;7.69;100.00
59971;BME280;45825;45.434;9.116;2024-01-07T08:54:23;98833.53;;;7.67;100.00
59971;BME280;45825;45.434;9.116;2024-01-07T08:56:48;98833.97;;;7.74;100.00
59971;BME280;45825;45.434;9.116;2024-01-07T08:59:14;98831.03;;;7.79;100.00
59971;BME280;45825;45.434;9.116;2024-01-07T09:01:39;98833.16;;;7.74;100.00
59971;BME280;45825;45.434;9.116;2024-01-07T09:04:05;98838.38;;;7.74;100.00
59971;BME280;45825;45.434;9.116;2024-01-07T09:06:31;98844.31;;;7.63;100.00
59971;BME280;45825;45.434;9.116;2024-01-07T09:08:57;98848.13;;;7.72;100.00
59971;BME280;45825;45.434;9.116;2024-01-07T09:11:22;98843.72;;;7.72;100.00
59971;BME280;45825;45.434;9.116;2024-01-07T09:13:49;98838.13;;;7.64;100.00
59971;BME280;45825;45.434;9.116;2024-01-07T09:16:15;98833.03;;;7.62;100.00
59971;BME280;45825;45.434;9.116;2024-01-07T09:18:41;98834.72;;;7.89;100.00
59971;BME280;45825;45.434;9.116;2024-01-07T09:21:06;98848.44;;;7.80;100.00
59971;BME280;45825;45.434;9.116;2024-01-07T09:23:32;98848.94;;;7.72;100.00
59971;BME280;45825;45.434;9.116;2024-01-07T09:25:59;98844.00;;;7.54;100.00
59971;BME280;45825;45.434;9.116;2024-01-07T09:28:24;98835.22;;;7.55;100.00
59971;BME280;45825;45.434;9.116;2024-01-07T09:30:49;98851.84;;;7.54;100.00
59971;BME280;45825;45.434;9.116;2024-01-07T09:33:15;98848.28;;;7.55;100.00
59971;BME280;45825;45.434;9.116;2024-01-07T09:35:41;98853.31;;;7.59;100.00
59971;BME280;45825;45.434;9.116;2024-01-07T09:38:06;98853.03;;;7.63;100.00
59971;BME280;45825;45.434;9.116;2024-01-07T09:40:32;98844.63;;;7.58;100.00
59971;BME280;45825;45.434;9.116;2024-01-07T09:42:57;98870.09;;;7.69;100.00
59971;BME280;45825;45.434;9.116;2024-01-07T09:45:24;98876.63;;;7.76;100.00
59971;BME280;45825;45.434;9.116;2024-01-07T09:47:50;98882.47;;;7.80;100.00
59971;BME280;45825;45.434;9.116;2024-01-07T09:50:15;98884.91;;;7.83;100.00
59971;BME280;45825;45.434;9.116;2024-01-07T09:52:43;98888.25;;;7.85;100.00
59971;BME280;45825;45.434;9.116;2024-01-07T09:55:30;98887.13;;;7.89;100.00
59971;BME280;45825;45.434;9.116;2024-01-07T09:57:56;98888.78;;;7.90;100.00
59971;BME280;45825;45.434;9.116;2024-01-07T10:00:22;98883.47;;;7.92;100.00
59971;BME280;45825;45.434;9.116;2024-01-07T10:02:47;98881.56;;;7.94;100.00
59971;BME280;45825;45.434;9.116;2024-01-07T10:05:12;98889.56;;;7.92;100.00
59971;BME280;45825;45.434;9.116;2024-01-07T10:07:38;98892.59;;;7.99;100.00
59971;BME280;45825;45.434;9.116;2024-01-07T10:10:14;98892.28;;;8.04;100.00
59971;BME280;45825;45.434;9.116;2024-01-07T10:12:39;98889.38;;;8.08;100.00
59971;BME280;45825;45.434;9.116;2024-01-07T10:15:05;98890.09;;;8.10;100.00
59971;BME280;45825;45.434;9.116;2024-01-07T10:17:30;98890.91;;;8.11;100.00
59971;BME280;45825;45.434;9.116;2024-01-07T10:19:56;98886.75;;;8.08;100.00
59971;BME280;45825;45.434;9.116;2024-01-07T10:22:21;98893.06;;;8.19;100.00
59971;BME280;45825;45.434;9.116;2024-01-07T10:24:46;98892.94;;;8.20;100.00
59971;BME280;45825;45.434;9.116;2024-01-07T10:27:14;98888.53;;;8.21;100.00
59971;BME280;45825;45.434;9.116;2024-01-07T10:29:39;98897.44;;;8.18;100.00
59971;BME280;45825;45.434;9.116;2024-01-07T10:32:05;98887.69;;;8.20;100.00
59971;BME280;45825;45.434;9.116;2024-01-07T10:34:31;98888.97;;;8.28;100.00
59971;BME280;45825;45.434;9.116;2024-01-07T10:36:59;98895.97;;;8.27;100.00
59971;BME280;45825;45.434;9.116;2024-01-07T10:39:25;98879.19;;;8.30;100.00
59971;BME280;45825;45.434;9.116;2024-01-07T10:41:52;98884.34;;;8.31;100.00
59971;BME280;45825;45.434;9.116;2024-01-07T10:44:24;98875.22;;;8.24;100.00
59971;BME280;45825;45.434;9.116;2024-01-07T10:46:53;98883.94;;;8.24;100.00
59971;BME280;45825;45.434;9.116;2024-01-07T10:49:20;98884.75;;;8.25;100.00
59971;BME280;45825;45.434;9.116;2024-01-07T10:51:50;98882.13;;;8.25;100.00
59971;BME280;45825;45.434;9.116;2024-01-07T10:54:23;98880.56;;;8.35;100.00
59971;BME280;45825;45.434;9.116;2024-01-07T10:56:50;98878.59;;;8.39;100.00
59971;BME280;45825;45.434;9.116;2024-01-07T10:59:19;98878.25;;;8.44;100.00
59971;BME280;45825;45.434;9.116;2024-01-07T11:01:44;98868.59;;;8.44;100.00
59971;BME280;45825;45.434;9.116;2024-01-07T11:04:23;98868.22;;;8.50;100.00
59971;BME280;45825;45.434;9.116;2024-01-07T11:12:23;98863.16;;;8.47;100.00
59971;BME280;45825;45.434;9.116;2024-01-07T11:14:48;98851.81;;;8.34;100.00
59971;BME280;45825;45.434;9.116;2024-01-07T11:17:44;98856.78;;;8.25;100.00
59971;BME280;45825;45.434;9.116;2024-01-07T11:20:19;98859.41;;;8.25;100.00
59971;BME280;45825;45.434;9.116;2024-01-07T11:22:45;98853.41;;;8.23;100.00
59971;BME280;45825;45.434;9.116;2024-01-07T11:25:28;98849.31;;;8.19;100.00
59971;BME280;45825;45.434;9.116;2024-01-07T11:27:56;98843.88;;;8.22;100.00
59971;BME280;45825;45.434;9.116;2024-01-07T11:30:22;98851.31;;;8.29;100.00
59971;BME280;45825;45.434;9.116;2024-01-07T11:32:47;98851.00;;;8.33;100.00
59971;BME280;45825;45.434;9.116;2024-01-07T11:35:13;98840.53;;;8.33;100.00
59971;BME280;45825;45.434;9.116;2024-01-07T11:37:38;98840.63;;;8.45;100.00
59971;BME280;45825;45.434;9.116;2024-01-07T11:40:06;98843.25;;;8.45;100.00
59971;BME280;45825;45.434;9.116;2024-01-07T11:42:32;98834.97;;;8.25;100.00
59971;BME280;45825;45.434;9.116;2024-01-07T11:44:57;98849.22;;;8.34;100.00
59971;BME280;45825;45.434;9.116;2024-01-07T11:47:23;98847.84;;;8.28;100.00
59971;BME280;45825;45.434;9.116;2024-01-07T11:49:49;98840.09;;;8.27;100.00
59971;BME280;45825;45.434;9.116;2024-01-07T11:52:15;98835.59;;;8.29;100.00
59971;BME280;45825;45.434;9.116;2024-01-07T11:54:41;98846.28;;;8.38;100.00
59971;BME280;45825;45.434;9.116;2024-01-07T11:57:07;98846.28;;;8.38;100.00
59971;BME280;45825;45.434;9.116;2024-01-07T11:59:35;98840.31;;;8.36;100.00
59971;BME280;45825;45.434;9.116;2024-01-07T12:02:02;98841.03;;;8.38;100.00
59971;BME280;45825;45.434;9.116;2024-01-07T12:04:33;98844.06;;;8.45;100.00
59971;BME280;45825;45.434;9.116;2024-01-07T12:06:58;98829.91;;;8.48;100.00
59971;BME280;45825;45.434;9.116;2024-01-07T12:09:25;98837.16;;;8.57;100.00
59971;BME280;45825;45.434;9.116;2024-01-07T12:11:51;98840.31;;;8.62;100.00
59971;BME280;45825;45.434;9.116;2024-01-07T12:14:17;98831.69;;;8.73;100.00
59971;BME280;45825;45.434;9.116;2024-01-07T12:16:42;98818.88;;;8.82;100.00
59971;BME280;45825;45.434;9.116;2024-01-07T12:19:08;98825.47;;;8.87;100.00
59971;BME280;45825;45.434;9.116;2024-01-07T12:21:34;98841.22;;;8.74;100.00
59971;BME280;45825;45.434;9.116;2024-01-07T12:24:00;98822.88;;;8.74;100.00
59971;BME280;45825;45.434;9.116;2024-01-07T12:26:28;98826.91;;;8.91;100.00
59971;BME280;45825;45.434;9.116;2024-01-07T12:28:55;98827.06;;;8.77;100.00
59971;BME280;45825;45.434;9.116;2024-01-07T12:31:22;98831.13;;;8.81;100.00
59971;BME280;45825;45.434;9.116;2024-01-07T12:33:47;98832.09;;;8.80;100.00
59971;BME280;45825;45.434;9.116;2024-01-07T12:36:13;98815.72;;;8.76;100.00
59971;BME280;45825;45.434;9.116;2024-01-07T12:38:40;98812.97;;;8.91;100.00
59971;BME280;45825;45.434;9.116;2024-01-07T12:41:06;98812.00;;;9.05;100.00
59971;BME280;45825;45.434;9.116;2024-01-07T12:43:32;98816.31;;;8.93;100.00
59971;BME280;45825;45.434;9.116;2024-01-07T12:45:58;98822.00;;;8.87;100.00
59971;BME280;45825;45.434;9.116;2024-01-07T12:48:29;98819.16;;;9.14;100.00
59971;BME280;45825;45.434;9.116;2024-01-07T12:50:55;98820.34;;;9.10;100.00
59971;BME280;45825;45.434;9.116;2024-01-07T12:53:20;98823.06;;;8.84;100.00
59971;BME280;45825;45.434;9.116;2024-01-07T12:55:45;98836.19;;;8.84;100.00
59971;BME280;45825;45.434;9.116;2024-01-07T12:58:11;98834.31;;;9.11;100.00